createdAt,value
2022-09-26T00:00:07.705Z,12.07
2022-09-26T00:00:44.157Z,9.63
2022-09-26T00:01:23.261Z,11.05
2022-09-26T00:01:55.525Z,11.27
2022-09-26T00:02:29.864Z,10.95
2022-09-26T00:03:01.859Z,10.85
2022-09-26T00:03:34.547Z,10.80
2022-09-26T00:04:16.096Z,10.70
2022-09-26T00:04:47.926Z,9.73
2022-09-26T00:05:20.100Z,11.77
2022-09-26T00:05:51.805Z,10.88
2022-09-26T00:06:25.055Z,10.30
2022-09-26T00:06:57.261Z,10.77
2022-09-26T00:07:29.564Z,9.75
2022-09-26T00:08:01.603Z,10.18
2022-09-26T00:08:34.492Z,11.55
2022-09-26T00:09:06.351Z,11.82
2022-09-26T00:09:38.250Z,10.85
2022-09-26T00:10:09.945Z,10.30
2022-09-26T00:10:41.649Z,10.82
2022-09-26T00:11:16.986Z,11.40
2022-09-26T00:11:49.882Z,10.75
2022-09-26T00:12:21.629Z,10.93
2022-09-26T00:12:55.371Z,10.05
2022-09-26T00:13:29.114Z,10.65
2022-09-26T00:14:06.836Z,10.60
2022-09-26T00:14:38.843Z,11.15
2022-09-26T00:15:11.134Z,11.00
2022-09-26T00:15:42.899Z,10.30
2022-09-26T00:16:15.460Z,11.82
2022-09-26T00:16:47.413Z,10.27
2022-09-26T00:17:19.260Z,11.10
2022-09-26T00:17:51.206Z,10.10
2022-09-26T00:18:23.827Z,11.18
2022-09-26T00:18:58.848Z,10.25
2022-09-26T00:19:31.147Z,10.27
2022-09-26T00:20:02.975Z,10.10
2022-09-26T00:20:36.636Z,10.57
2022-09-26T00:21:11.169Z,10.00
2022-09-26T00:21:42.868Z,11.00
2022-09-26T00:22:14.594Z,12.85
2022-09-26T00:22:46.365Z,12.30
2022-09-26T00:23:18.358Z,9.90
2022-09-26T00:23:50.377Z,9.57
2022-09-26T00:24:22.102Z,10.82
2022-09-26T00:24:53.910Z,10.13
2022-09-26T00:25:27.007Z,9.88
2022-09-26T00:25:59.119Z,11.50
2022-09-26T00:26:33.368Z,9.93
2022-09-26T00:27:05.150Z,10.95
2022-09-26T00:27:36.921Z,9.98
2022-09-26T00:28:08.702Z,9.68
2022-09-26T00:28:41.373Z,10.52
2022-09-26T00:29:14.087Z,9.88
2022-09-26T00:29:46.070Z,9.80
2022-09-26T00:30:17.881Z,10.15
2022-09-26T00:30:49.756Z,10.38
2022-09-26T00:31:25.444Z,14.45
2022-09-26T00:31:57.246Z,9.88
2022-09-26T00:32:29.177Z,12.57
2022-09-26T00:33:00.993Z,12.02
2022-09-26T00:33:33.406Z,10.95
2022-09-26T00:34:05.489Z,10.75
2022-09-26T00:34:37.330Z,10.65
2022-09-26T00:35:09.705Z,10.65
2022-09-26T00:35:49.436Z,10.93
2022-09-26T00:36:26.869Z,11.15
2022-09-26T00:37:08.635Z,12.82
2022-09-26T00:37:40.333Z,10.95
2022-09-26T00:38:12.066Z,9.55
2022-09-26T00:38:44.746Z,9.80
2022-09-26T00:39:16.943Z,10.75
2022-09-26T00:39:48.860Z,10.13
2022-09-26T00:40:27.076Z,11.02
2022-09-26T00:40:59.211Z,12.52
2022-09-26T00:41:31.057Z,11.05
2022-09-26T00:42:03.194Z,10.90
2022-09-26T00:42:35.085Z,15.23
2022-09-26T00:43:35.415Z,10.82
2022-09-26T00:44:43.558Z,13.55
2022-09-26T00:45:15.518Z,10.60
2022-09-26T00:45:47.401Z,15.57
2022-09-26T00:46:26.815Z,11.20
2022-09-26T00:46:59.187Z,13.77
2022-09-26T00:48:05.572Z,12.52
2022-09-26T00:48:39.829Z,11.57
2022-09-26T00:49:22.318Z,11.65
2022-09-26T00:49:59.500Z,11.80
2022-09-26T00:50:36.658Z,14.20
2022-09-26T00:51:09.132Z,12.63
2022-09-26T00:51:46.278Z,12.43
2022-09-26T00:52:30.943Z,11.70
2022-09-26T00:53:14.895Z,11.43
2022-09-26T00:53:50.325Z,12.95
2022-09-26T00:54:22.513Z,12.77
2022-09-26T00:54:58.326Z,13.15
2022-09-26T00:55:36.217Z,13.30
2022-09-26T00:56:16.025Z,13.13
2022-09-26T00:56:52.342Z,13.57
2022-09-26T00:57:32.055Z,13.73
2022-09-26T00:58:13.516Z,12.63
2022-09-26T00:58:50.239Z,12.75
2022-09-26T00:59:54.752Z,15.32
2022-09-26T01:00:27.319Z,11.60
2022-09-26T01:01:00.796Z,12.15
2022-09-26T01:01:33.068Z,12.95
2022-09-26T01:02:05.676Z,13.30
2022-09-26T01:02:39.177Z,13.13
2022-09-26T01:03:11.831Z,12.18
2022-09-26T01:03:45.149Z,13.05
2022-09-26T01:04:17.683Z,12.35
2022-09-26T01:04:49.507Z,13.70
2022-09-26T01:05:23.041Z,12.63
2022-09-26T01:05:55.597Z,13.85
2022-09-26T01:06:27.849Z,14.25
2022-09-26T01:07:06.078Z,16.67
2022-09-26T01:07:37.859Z,14.13
2022-09-26T01:08:11.819Z,13.63
2022-09-26T01:08:53.683Z,13.80
2022-09-26T01:09:26.165Z,12.18
2022-09-26T01:09:58.672Z,13.77
2022-09-26T01:10:30.498Z,12.68
2022-09-26T01:11:03.660Z,13.70
2022-09-26T01:11:38.253Z,13.05
2022-09-26T01:12:10.787Z,11.32
2022-09-26T01:12:43.842Z,13.10
2022-09-26T01:13:16.684Z,13.65
2022-09-26T01:13:51.156Z,14.23
2022-09-26T01:14:24.475Z,12.25
2022-09-26T01:14:58.265Z,13.70
2022-09-26T01:15:30.117Z,12.07
2022-09-26T01:16:02.271Z,13.15
2022-09-26T01:16:34.882Z,13.82
2022-09-26T01:17:07.940Z,13.95
2022-09-26T01:17:44.284Z,12.98
2022-09-26T01:18:16.057Z,14.20
2022-09-26T01:18:48.353Z,14.30
2022-09-26T01:19:41.265Z,14.50
2022-09-26T01:20:27.516Z,12.98
2022-09-26T01:21:20.985Z,14.73
2022-09-26T01:21:58.626Z,15.07
2022-09-26T01:22:48.102Z,15.48
2022-09-26T01:23:44.590Z,14.73
2022-09-26T01:24:32.586Z,13.32
2022-09-26T01:25:29.879Z,13.32
2022-09-26T01:26:10.634Z,13.32
2022-09-26T01:27:46.803Z,14.40
2022-09-26T01:28:56.230Z,15.65
2022-09-26T01:29:54.320Z,13.85
2022-09-26T01:30:31.484Z,12.32
2022-09-26T01:31:42.930Z,13.90
2022-09-26T01:32:51.092Z,12.95
2022-09-26T01:33:44.708Z,13.45
2022-09-26T01:34:32.031Z,12.43
2022-09-26T01:35:15.991Z,14.38
2022-09-26T01:36:10.848Z,15.32
2022-09-26T01:37:02.092Z,14.40
2022-09-26T01:37:59.627Z,13.80
2022-09-26T01:38:53.010Z,14.48
2022-09-26T01:39:54.684Z,13.20
2022-09-26T01:41:00.664Z,13.73
2022-09-26T01:41:59.188Z,14.95
2022-09-26T01:43:00.003Z,14.82
2022-09-26T01:43:38.415Z,13.88
2022-09-26T01:44:38.253Z,15.77
2022-09-26T01:45:19.156Z,16.55
2022-09-26T01:46:15.904Z,15.73
2022-09-26T01:47:23.706Z,15.95
2022-09-26T01:48:16.908Z,16.63
2022-09-26T01:49:02.180Z,17.02
2022-09-26T01:49:40.541Z,15.52
2022-09-26T01:50:12.334Z,14.68
2022-09-26T01:50:55.316Z,16.20
2022-09-26T01:51:52.908Z,16.17
2022-09-26T01:52:27.429Z,15.40
2022-09-26T01:53:08.145Z,14.40
2022-09-26T01:53:51.551Z,14.27
2022-09-26T01:54:28.908Z,14.68
2022-09-26T01:55:06.798Z,14.57
2022-09-26T01:55:42.672Z,14.68
2022-09-26T01:56:19.948Z,15.43
2022-09-26T01:56:58.311Z,17.63
2022-09-26T01:57:45.779Z,15.20
2022-09-26T01:58:27.689Z,16.08
2022-09-26T01:59:21.171Z,15.48
2022-09-26T02:00:02.279Z,14.82
2022-09-26T02:00:37.636Z,15.30
2022-09-26T02:01:13.791Z,14.15
2022-09-26T02:01:48.605Z,13.68
2022-09-26T02:02:27.444Z,18.05
2022-09-26T02:03:01.236Z,14.45
2022-09-26T02:03:41.383Z,13.35
2022-09-26T02:04:21.542Z,15.60
2022-09-26T02:05:03.764Z,18.05
2022-09-26T02:05:44.535Z,15.05
2022-09-26T02:06:24.014Z,15.20
2022-09-26T02:07:01.939Z,15.27
2022-09-26T02:07:45.826Z,14.57
2022-09-26T02:08:24.530Z,15.27
2022-09-26T02:09:11.822Z,14.65
2022-09-26T02:09:59.350Z,14.32
2022-09-26T02:10:36.961Z,14.93
2022-09-26T02:11:19.556Z,16.23
2022-09-26T02:11:55.617Z,16.60
2022-09-26T02:12:39.512Z,13.38
2022-09-26T02:13:20.289Z,15.07
2022-09-26T02:14:00.229Z,15.40
2022-09-26T02:14:36.470Z,17.08
2022-09-26T02:15:11.718Z,16.50
2022-09-26T02:15:47.533Z,15.55
2022-09-26T02:16:26.132Z,22.52
2022-09-26T02:17:07.150Z,15.55
2022-09-26T02:17:48.435Z,15.02
2022-09-26T02:18:30.801Z,15.40
2022-09-26T02:19:12.839Z,16.02
2022-09-26T02:19:53.124Z,14.98
2022-09-26T02:20:31.518Z,13.82
2022-09-26T02:21:12.937Z,15.25
2022-09-26T02:21:44.777Z,15.18
2022-09-26T02:22:16.753Z,14.15
2022-09-26T02:22:50.845Z,13.18
2022-09-26T02:23:23.589Z,14.75
2022-09-26T02:23:57.840Z,16.02
2022-09-26T02:24:29.965Z,18.17
2022-09-26T02:25:04.391Z,15.82
2022-09-26T02:25:37.571Z,15.60
2022-09-26T02:26:09.893Z,13.45
2022-09-26T02:26:44.657Z,17.65
2022-09-26T02:27:16.634Z,15.90
2022-09-26T02:27:49.909Z,17.90
2022-09-26T02:28:23.039Z,15.32
2022-09-26T02:28:56.330Z,14.48
2022-09-26T02:29:28.528Z,15.10
2022-09-26T02:30:00.723Z,15.68
2022-09-26T02:30:33.236Z,14.90
2022-09-26T02:31:08.334Z,15.52
2022-09-26T02:31:48.582Z,14.82
2022-09-26T02:32:33.550Z,17.58
2022-09-26T02:33:05.617Z,17.58
2022-09-26T02:33:39.120Z,14.13
2022-09-26T02:34:10.855Z,17.27
2022-09-26T02:34:45.917Z,14.55
2022-09-26T02:35:36.708Z,14.77
2022-09-26T02:36:10.794Z,15.88
2022-09-26T02:36:44.392Z,17.90
2022-09-26T02:37:18.705Z,17.65
2022-09-26T02:37:50.465Z,17.75
2022-09-26T02:38:24.848Z,18.77
2022-09-26T02:39:35.817Z,16.13
2022-09-26T02:40:14.681Z,17.00
2022-09-26T02:40:56.502Z,15.93
2022-09-26T02:41:33.318Z,17.33
2022-09-26T02:42:29.479Z,15.50
2022-09-26T02:43:13.791Z,15.00
2022-09-26T02:44:10.482Z,15.77
2022-09-26T02:45:22.758Z,15.65
2022-09-26T02:46:04.042Z,13.73
2022-09-26T02:46:57.032Z,19.23
2022-09-26T02:47:48.633Z,14.45
2022-09-26T02:48:30.052Z,16.00
2022-09-26T02:49:07.741Z,15.35
2022-09-26T02:49:54.449Z,17.88
2022-09-26T02:50:54.784Z,14.77
2022-09-26T02:51:51.192Z,16.70
2022-09-26T02:52:37.630Z,14.75
2022-09-26T02:53:21.041Z,15.68
2022-09-26T02:54:23.506Z,16.60
2022-09-26T02:55:04.591Z,16.83
2022-09-26T02:55:51.717Z,15.48
2022-09-26T02:56:34.688Z,16.00
2022-09-26T02:57:22.840Z,15.32
2022-09-26T02:58:05.806Z,15.85
2022-09-26T02:58:54.482Z,15.68
2022-09-26T02:59:36.666Z,16.70
2022-09-26T03:00:17.109Z,31.80
2022-09-26T03:01:10.592Z,18.67
2022-09-26T03:02:03.646Z,16.08
2022-09-26T03:02:44.883Z,16.27
2022-09-26T03:03:30.571Z,18.63
2022-09-26T03:04:08.787Z,19.80
2022-09-26T03:05:06.680Z,16.13
2022-09-26T03:05:43.107Z,15.52
2022-09-26T03:06:20.019Z,15.32
2022-09-26T03:06:57.877Z,15.70
2022-09-26T03:07:37.899Z,16.15
2022-09-26T03:08:17.426Z,20.92
2022-09-26T03:08:51.168Z,14.57
2022-09-26T03:09:25.645Z,15.48
2022-09-26T03:10:00.789Z,15.10
2022-09-26T03:10:34.280Z,17.23
2022-09-26T03:11:10.807Z,13.65
2022-09-26T03:11:43.579Z,15.23
2022-09-26T03:12:16.702Z,16.58
2022-09-26T03:12:51.193Z,15.52
2022-09-26T03:13:24.759Z,15.02
2022-09-26T03:13:59.565Z,14.95
2022-09-26T03:14:34.241Z,15.13
2022-09-26T03:15:07.472Z,17.00
2022-09-26T03:15:41.737Z,14.57
2022-09-26T03:16:14.751Z,14.57
2022-09-26T03:16:48.705Z,15.30
2022-09-26T03:17:21.602Z,15.80
2022-09-26T03:17:55.039Z,14.82
2022-09-26T03:18:34.107Z,14.07
2022-09-26T03:19:29.920Z,15.50
2022-09-26T03:20:11.186Z,15.90
2022-09-26T03:20:44.581Z,15.15
2022-09-26T03:21:18.360Z,14.00
2022-09-26T03:21:50.148Z,15.50
2022-09-26T03:22:22.726Z,14.35
2022-09-26T03:22:55.813Z,14.65
2022-09-26T03:23:30.153Z,14.82
2022-09-26T03:24:06.916Z,14.63
2022-09-26T03:24:43.146Z,16.27
2022-09-26T03:25:20.118Z,15.95
2022-09-26T03:26:10.958Z,14.43
2022-09-26T03:26:50.663Z,13.27
2022-09-26T03:27:23.505Z,15.82
2022-09-26T03:27:55.937Z,12.85
2022-09-26T03:28:30.106Z,13.77
2022-09-26T03:29:05.174Z,13.25
2022-09-26T03:29:41.459Z,13.00
2022-09-26T03:30:22.508Z,14.18
2022-09-26T03:31:13.045Z,13.88
2022-09-26T03:31:55.289Z,13.68
2022-09-26T03:32:28.447Z,14.32
2022-09-26T03:33:03.191Z,14.32
2022-09-26T03:33:35.784Z,14.98
2022-09-26T03:34:07.696Z,13.80
2022-09-26T03:34:39.948Z,14.75
2022-09-26T03:35:12.113Z,15.32
2022-09-26T03:35:43.864Z,13.98
2022-09-26T03:36:15.932Z,16.83
2022-09-26T03:36:47.718Z,14.32
2022-09-26T03:37:19.806Z,13.85
2022-09-26T03:37:51.621Z,13.38
2022-09-26T03:38:23.382Z,13.60
2022-09-26T03:39:05.533Z,16.05
2022-09-26T03:39:47.743Z,12.27
2022-09-26T03:40:27.237Z,12.73
2022-09-26T03:41:29.380Z,14.52
2022-09-26T03:42:09.021Z,11.52
2022-09-26T03:42:40.867Z,14.52
2022-09-26T03:43:14.310Z,14.70
2022-09-26T03:43:46.111Z,15.27
2022-09-26T03:44:21.676Z,14.82
2022-09-26T03:45:22.914Z,11.98
2022-09-26T03:46:08.243Z,12.23
2022-09-26T03:46:40.399Z,13.52
2022-09-26T03:47:15.428Z,13.55
2022-09-26T03:47:56.309Z,11.77
2022-09-26T03:48:28.892Z,12.40
2022-09-26T03:49:00.643Z,13.75
2022-09-26T03:49:32.475Z,11.90
2022-09-26T03:50:06.398Z,11.68
2022-09-26T03:50:38.171Z,12.68
2022-09-26T03:51:14.287Z,10.43
2022-09-26T03:51:46.164Z,11.60
2022-09-26T03:52:18.106Z,14.38
2022-09-26T03:52:50.673Z,13.00
2022-09-26T03:53:22.512Z,11.48
2022-09-26T03:53:54.405Z,13.35
2022-09-26T03:54:28.648Z,11.52
2022-09-26T03:55:00.393Z,13.15
2022-09-26T03:55:32.149Z,11.70
2022-09-26T03:56:16.132Z,11.32
2022-09-26T03:56:48.498Z,10.38
2022-09-26T03:57:21.663Z,13.15
2022-09-26T03:58:00.739Z,11.32
2022-09-26T03:58:39.309Z,10.60
2022-09-26T03:59:12.028Z,11.18
2022-09-26T03:59:44.365Z,11.80
2022-09-26T04:00:18.108Z,11.90
2022-09-26T04:00:51.322Z,11.43
2022-09-26T04:01:24.926Z,11.23
2022-09-26T04:01:56.816Z,13.18
2022-09-26T04:02:29.777Z,12.32
2022-09-26T04:03:17.727Z,12.95
2022-09-26T04:03:51.309Z,12.15
2022-09-26T04:04:23.366Z,13.63
2022-09-26T04:04:55.201Z,12.90
2022-09-26T04:05:26.929Z,10.68
2022-09-26T04:05:58.641Z,10.32
2022-09-26T04:06:30.440Z,13.50
2022-09-26T04:07:04.925Z,12.80
2022-09-26T04:07:37.756Z,11.15
2022-09-26T04:08:10.123Z,9.45
2022-09-26T04:08:43.123Z,11.57
2022-09-26T04:09:17.564Z,10.90
2022-09-26T04:09:53.985Z,10.27
2022-09-26T04:10:26.072Z,10.52
2022-09-26T04:11:03.883Z,10.55
2022-09-26T04:11:35.683Z,9.98
2022-09-26T04:12:07.891Z,11.38
2022-09-26T04:12:44.609Z,9.77
2022-09-26T04:13:46.630Z,10.65
2022-09-26T04:14:09.718Z,12.68
2022-09-26T04:14:43.484Z,9.98
2022-09-26T04:15:15.467Z,11.38
2022-09-26T04:15:54.868Z,11.88
2022-09-26T04:16:27.200Z,11.18
2022-09-26T04:17:07.827Z,10.80
2022-09-26T04:17:44.251Z,10.55
2022-09-26T04:18:16.033Z,11.48
2022-09-26T04:18:48.063Z,13.23
2022-09-26T04:19:19.950Z,10.40
2022-09-26T04:19:51.739Z,11.15
2022-09-26T04:20:24.408Z,12.20
2022-09-26T04:21:05.711Z,10.10
2022-09-26T04:21:40.929Z,12.32
2022-09-26T04:22:12.814Z,10.55
2022-09-26T04:22:45.741Z,12.77
2022-09-26T04:23:18.118Z,14.15
2022-09-26T04:23:50.335Z,13.68
2022-09-26T04:24:24.274Z,18.60
2022-09-26T04:24:57.112Z,35.50
2022-09-26T04:25:29.585Z,28.75
2022-09-26T04:26:06.807Z,15.68
2022-09-26T04:26:41.199Z,12.10
2022-09-26T04:27:13.015Z,13.32
2022-09-26T04:27:44.916Z,11.88
2022-09-26T04:28:16.875Z,12.55
2022-09-26T04:28:52.268Z,12.98
2022-09-26T04:29:24.652Z,13.45
2022-09-26T04:30:02.300Z,14.60
2022-09-26T04:31:08.331Z,27.10
2022-09-26T04:31:40.333Z,17.83
2022-09-26T04:32:20.787Z,14.20
2022-09-26T04:33:12.368Z,17.92
2022-09-26T04:33:51.096Z,13.68
2022-09-26T04:34:27.317Z,14.75
2022-09-26T04:35:00.013Z,12.30
2022-09-26T04:35:31.900Z,17.00
2022-09-26T04:36:07.560Z,12.85
2022-09-26T04:36:39.350Z,9.93
2022-09-26T04:37:12.057Z,12.95
2022-09-26T04:37:43.776Z,11.65
2022-09-26T04:38:15.592Z,11.98
2022-09-26T04:38:48.914Z,11.75
2022-09-26T04:39:23.131Z,11.85
2022-09-26T04:39:56.659Z,12.25
2022-09-26T04:40:29.350Z,10.65
2022-09-26T04:41:14.333Z,10.52
2022-09-26T04:41:46.244Z,11.25
2022-09-26T04:42:18.576Z,9.38
2022-09-26T04:42:50.502Z,10.13
2022-09-26T04:43:22.231Z,10.20
2022-09-26T04:43:54.747Z,11.52
2022-09-26T04:44:26.907Z,9.15
2022-09-26T04:44:58.627Z,12.07
2022-09-26T04:45:32.228Z,10.55
2022-09-26T04:46:09.488Z,10.95
2022-09-26T04:46:44.446Z,11.10
2022-09-26T04:47:17.725Z,10.25
2022-09-26T04:48:10.278Z,11.43
2022-09-26T04:49:04.666Z,10.00
2022-09-26T04:49:36.409Z,9.75
2022-09-26T04:50:08.316Z,10.35
2022-09-26T04:50:40.663Z,9.15
2022-09-26T04:51:16.877Z,9.80
2022-09-26T04:51:49.510Z,10.00
2022-09-26T04:52:21.556Z,11.07
2022-09-26T04:52:53.578Z,9.98
2022-09-26T04:53:25.443Z,8.40
2022-09-26T04:54:06.537Z,8.00
2022-09-26T04:54:44.107Z,11.13
2022-09-26T04:55:16.949Z,10.63
2022-09-26T04:55:49.138Z,10.07
2022-09-26T04:56:22.449Z,9.90
2022-09-26T04:56:54.251Z,11.05
2022-09-26T04:57:27.703Z,9.45
2022-09-26T04:57:59.508Z,9.85
2022-09-26T04:58:31.540Z,10.57
2022-09-26T04:59:03.471Z,9.73
2022-09-26T04:59:44.347Z,9.20
2022-09-26T05:00:18.449Z,10.85
2022-09-26T05:00:50.444Z,9.45
2022-09-26T05:01:32.501Z,8.25
2022-09-26T05:02:08.790Z,9.27
2022-09-26T05:02:48.639Z,9.05
2022-09-26T05:03:20.496Z,10.02
2022-09-26T05:03:55.549Z,9.27
2022-09-26T05:04:27.948Z,10.38
2022-09-26T05:05:00.744Z,10.80
2022-09-26T05:05:33.749Z,11.93
2022-09-26T05:06:08.977Z,11.48
2022-09-26T05:06:40.851Z,13.05
2022-09-26T05:07:19.475Z,9.50
2022-09-26T05:07:52.475Z,10.40
2022-09-26T05:08:24.703Z,9.93
2022-09-26T05:08:56.505Z,11.65
2022-09-26T05:09:42.853Z,10.15
2022-09-26T05:10:21.062Z,10.90
2022-09-26T05:10:59.661Z,12.80
2022-09-26T05:11:32.938Z,9.68
2022-09-26T05:12:04.733Z,10.55
2022-09-26T05:12:39.391Z,11.77
2022-09-26T05:13:11.258Z,10.02
2022-09-26T05:13:43.121Z,10.43
2022-09-26T05:14:15.070Z,12.88
2022-09-26T05:14:47.023Z,9.93
2022-09-26T05:15:18.719Z,9.90
2022-09-26T05:15:54.132Z,10.75
2022-09-26T05:16:28.219Z,10.48
2022-09-26T05:17:02.208Z,10.02
2022-09-26T05:17:34.767Z,12.13
2022-09-26T05:18:08.627Z,12.10
2022-09-26T05:18:42.030Z,9.57
2022-09-26T05:19:13.991Z,11.77
2022-09-26T05:20:10.043Z,11.00
2022-09-26T05:20:55.115Z,11.50
2022-09-26T05:21:26.921Z,11.77
2022-09-26T05:21:58.667Z,8.85
2022-09-26T05:22:31.458Z,10.43
2022-09-26T05:23:07.276Z,9.95
2022-09-26T05:23:57.632Z,14.13
2022-09-26T05:24:48.242Z,12.18
2022-09-26T05:25:39.027Z,10.32
2022-09-26T05:26:27.450Z,9.90
2022-09-26T05:26:59.891Z,9.57
2022-09-26T05:27:31.874Z,9.82
2022-09-26T05:28:05.089Z,10.90
2022-09-26T05:28:36.878Z,10.73
2022-09-26T05:29:09.536Z,12.25
2022-09-26T05:30:04.490Z,11.77
2022-09-26T05:30:36.264Z,12.30
2022-09-26T05:31:08.690Z,10.85
2022-09-26T05:31:40.748Z,12.23
2022-09-26T05:32:13.778Z,11.43
2022-09-26T05:32:48.390Z,11.07
2022-09-26T05:33:22.318Z,13.38
2022-09-26T05:33:59.323Z,10.13
2022-09-26T05:34:31.559Z,10.27
2022-09-26T05:35:05.531Z,11.55
2022-09-26T05:35:41.584Z,9.77
2022-09-26T05:36:14.079Z,10.10
2022-09-26T05:36:46.095Z,12.27
2022-09-26T05:37:18.222Z,11.20
2022-09-26T05:37:59.030Z,12.45
2022-09-26T05:38:34.489Z,10.00
2022-09-26T05:39:27.241Z,8.10
2022-09-26T05:40:22.237Z,10.20
2022-09-26T05:40:59.286Z,9.25
2022-09-26T05:41:38.747Z,10.35
2022-09-26T05:42:13.916Z,11.02
2022-09-26T05:42:46.395Z,12.13
2022-09-26T05:43:18.738Z,9.43
2022-09-26T05:43:52.208Z,9.80
2022-09-26T05:44:24.561Z,8.93
2022-09-26T05:45:03.413Z,10.65
2022-09-26T05:45:39.603Z,9.93
2022-09-26T05:46:17.128Z,9.85
2022-09-26T05:47:03.719Z,10.93
2022-09-26T05:47:44.196Z,9.63
2022-09-26T05:48:41.732Z,9.73
2022-09-26T05:49:31.065Z,11.95
2022-09-26T05:50:09.905Z,9.95
2022-09-26T05:50:49.260Z,8.90
2022-09-26T05:51:28.838Z,10.98
2022-09-26T05:52:06.522Z,10.70
2022-09-26T05:52:39.615Z,8.77
2022-09-26T05:53:14.533Z,10.93
2022-09-26T05:53:53.156Z,11.80
2022-09-26T05:54:35.294Z,9.43
2022-09-26T05:55:17.070Z,11.13
2022-09-26T05:56:19.059Z,14.32
2022-09-26T05:57:14.438Z,11.23
2022-09-26T05:58:01.260Z,11.30
2022-09-26T05:59:03.980Z,11.38
2022-09-26T05:59:58.376Z,10.55
2022-09-26T06:00:52.459Z,9.85
2022-09-26T06:01:35.966Z,9.27
2022-09-26T06:02:24.549Z,10.07
2022-09-26T06:03:22.032Z,9.73
2022-09-26T06:04:12.521Z,10.93
2022-09-26T06:05:12.775Z,10.40
2022-09-26T06:06:18.998Z,11.63
2022-09-26T06:07:08.332Z,12.20
2022-09-26T06:07:45.209Z,10.30
2022-09-26T06:08:40.782Z,12.18
2022-09-26T06:09:31.791Z,11.48
2022-09-26T06:10:39.719Z,12.15
2022-09-26T06:11:31.035Z,9.45
2022-09-26T06:12:06.398Z,12.57
2022-09-26T06:12:46.446Z,11.38
2022-09-26T06:13:21.841Z,9.68
2022-09-26T06:14:01.267Z,10.48
2022-09-26T06:14:37.811Z,9.38
2022-09-26T06:15:10.319Z,9.65
2022-09-26T06:15:45.928Z,10.35
2022-09-26T06:16:21.584Z,14.35
2022-09-26T06:17:02.109Z,9.60
2022-09-26T06:17:37.055Z,11.50
2022-09-26T06:18:09.545Z,9.50
2022-09-26T06:18:47.168Z,12.68
2022-09-26T06:19:24.530Z,13.30
2022-09-26T06:20:06.320Z,11.05
2022-09-26T06:20:43.111Z,9.57
2022-09-26T06:21:18.460Z,8.48
2022-09-26T06:21:59.639Z,8.35
2022-09-26T06:22:49.132Z,8.98
2022-09-26T06:23:26.602Z,8.02
2022-09-26T06:24:08.103Z,7.82
2022-09-26T06:24:41.190Z,8.90
2022-09-26T06:25:18.986Z,11.70
2022-09-26T06:25:52.706Z,12.80
2022-09-26T06:26:40.470Z,12.70
2022-09-26T06:27:17.113Z,8.73
2022-09-26T06:28:00.081Z,9.85
2022-09-26T06:28:36.532Z,9.50
2022-09-26T06:29:17.722Z,7.57
2022-09-26T06:29:58.315Z,8.32
2022-09-26T06:30:33.654Z,8.63
2022-09-26T06:31:39.210Z,7.35
2022-09-26T06:32:17.229Z,8.20
2022-09-26T06:33:16.952Z,8.52
2022-09-26T06:34:23.626Z,9.82
2022-09-26T06:35:13.682Z,9.82
2022-09-26T06:36:06.813Z,8.02
2022-09-26T06:36:52.191Z,8.95
2022-09-26T06:37:31.393Z,8.27
2022-09-26T06:38:10.282Z,10.70
2022-09-26T06:38:47.033Z,9.80
2022-09-26T06:39:22.202Z,8.35
2022-09-26T06:39:59.490Z,10.45
2022-09-26T06:40:36.698Z,11.00
2022-09-26T06:41:09.182Z,9.27
2022-09-26T06:41:41.924Z,11.45
2022-09-26T06:42:42.116Z,8.80
2022-09-26T06:43:28.610Z,10.30
2022-09-26T06:44:20.377Z,8.60
2022-09-26T06:44:58.901Z,8.18
2022-09-26T06:45:53.294Z,9.05
2022-09-26T06:46:36.983Z,8.65
2022-09-26T06:47:24.119Z,8.75
2022-09-26T06:48:12.715Z,8.07
2022-09-26T06:49:03.814Z,7.55
2022-09-26T06:49:59.775Z,8.02
2022-09-26T06:50:51.761Z,10.85
2022-09-26T06:51:27.051Z,9.25
2022-09-26T06:52:03.542Z,8.10
2022-09-26T06:52:39.058Z,7.18
2022-09-26T06:53:16.514Z,8.18
2022-09-26T06:53:54.859Z,9.13
2022-09-26T06:54:37.448Z,8.90
2022-09-26T06:55:15.287Z,7.32
2022-09-26T06:56:03.019Z,9.20
2022-09-26T06:57:14.887Z,8.13
2022-09-26T06:57:56.809Z,10.13
2022-09-26T06:58:32.443Z,8.75
2022-09-26T06:59:55.214Z,10.50
2022-09-26T07:00:51.395Z,8.02
2022-09-26T07:01:50.585Z,7.97
2022-09-26T07:03:01.179Z,7.85
2022-09-26T07:03:59.908Z,7.53
2022-09-26T07:04:49.581Z,10.00
2022-09-26T07:05:30.395Z,9.63
2022-09-26T07:06:03.905Z,8.20
2022-09-26T07:06:38.531Z,7.68
2022-09-26T07:07:18.100Z,7.38
2022-09-26T07:07:52.378Z,6.72
2022-09-26T07:09:02.341Z,8.02
2022-09-26T07:09:49.234Z,7.38
2022-09-26T07:10:48.671Z,8.38
2022-09-26T07:11:50.447Z,7.38
2022-09-26T07:12:35.166Z,6.07
2022-09-26T07:13:12.336Z,7.47
2022-09-26T07:13:56.791Z,7.47
2022-09-26T07:14:31.390Z,7.13
2022-09-26T07:15:16.376Z,8.15
2022-09-26T07:15:54.294Z,9.07
2022-09-26T07:16:48.138Z,10.05
2022-09-26T07:17:30.756Z,10.80
2022-09-26T07:18:20.733Z,8.82
2022-09-26T07:19:12.506Z,6.13
2022-09-26T07:20:00.475Z,7.82
2022-09-26T07:20:56.832Z,7.57
2022-09-26T07:21:51.371Z,6.60
2022-09-26T07:22:47.376Z,7.28
2022-09-26T07:23:20.023Z,7.43
2022-09-26T07:23:56.756Z,10.75
2022-09-26T07:24:28.987Z,7.18
2022-09-26T07:25:01.328Z,9.38
2022-09-26T07:25:33.871Z,9.35
2022-09-26T07:26:07.614Z,8.70
2022-09-26T07:26:44.170Z,9.05
2022-09-26T07:27:18.166Z,6.78
2022-09-26T07:27:52.810Z,7.72
2022-09-26T07:28:29.455Z,7.25
2022-09-26T07:29:02.499Z,9.77
2022-09-26T07:29:35.763Z,7.38
2022-09-26T07:30:13.735Z,6.40
2022-09-26T07:30:57.365Z,8.80
2022-09-26T07:31:38.022Z,6.88
2022-09-26T07:32:33.752Z,7.20
2022-09-26T07:33:24.256Z,9.02
2022-09-26T07:33:57.766Z,25.20
2022-09-26T07:34:31.647Z,16.17
2022-09-26T07:35:11.782Z,9.07
2022-09-26T07:35:45.550Z,8.25
2022-09-26T07:36:18.689Z,5.03
2022-09-26T07:36:52.002Z,13.65
2022-09-26T07:37:24.265Z,8.48
2022-09-26T07:37:57.238Z,8.20
2022-09-26T07:38:29.867Z,10.25
2022-09-26T07:39:02.207Z,9.60
2022-09-26T07:39:34.723Z,10.25
2022-09-26T07:40:07.412Z,8.30
2022-09-26T07:40:40.518Z,9.88
2022-09-26T07:41:13.257Z,10.25
2022-09-26T07:41:46.211Z,7.30
2022-09-26T07:42:18.814Z,11.77
2022-09-26T07:43:15.418Z,12.85
2022-09-26T07:45:20.607Z,9.90
2022-09-26T07:45:52.152Z,9.52
2022-09-26T07:47:34.786Z,6.28
2022-09-26T07:48:25.562Z,8.35
2022-09-26T07:49:34.849Z,13.00
2022-09-26T07:50:36.217Z,8.40
2022-09-26T07:51:19.922Z,6.65
2022-09-26T07:51:57.589Z,7.63
2022-09-26T07:52:46.520Z,4.82
2022-09-26T07:53:26.671Z,7.57
2022-09-26T07:54:18.114Z,5.25
2022-09-26T07:55:20.931Z,8.32
2022-09-26T07:56:16.607Z,9.18
2022-09-26T07:57:07.362Z,7.07
2022-09-26T07:58:08.564Z,6.05
2022-09-26T07:58:53.509Z,5.95
2022-09-26T07:59:54.240Z,5.82
2022-09-26T08:00:44.908Z,4.75
2022-09-26T08:01:38.202Z,5.13
2022-09-26T08:02:36.612Z,5.32
2022-09-26T08:03:14.117Z,4.50
2022-09-26T08:03:48.560Z,6.38
2022-09-26T08:04:34.320Z,6.07
2022-09-26T08:05:08.370Z,5.55
2022-09-26T08:05:40.354Z,4.53
2022-09-26T08:06:20.236Z,8.35
2022-09-26T08:06:53.239Z,6.10
2022-09-26T08:07:25.558Z,7.50
2022-09-26T08:08:04.312Z,4.22
2022-09-26T08:08:55.862Z,4.65
2022-09-26T08:09:53.364Z,7.38
2022-09-26T08:10:56.530Z,6.25
2022-09-26T08:11:45.248Z,9.68
2022-09-26T08:12:40.490Z,11.30
2022-09-26T08:13:31.938Z,10.85
2022-09-26T08:14:22.393Z,8.30
2022-09-26T08:15:10.626Z,6.57
2022-09-26T08:15:49.418Z,8.82
2022-09-26T08:16:31.160Z,4.95
2022-09-26T08:17:09.512Z,6.93
2022-09-26T08:17:45.621Z,21.42
2022-09-26T08:18:17.578Z,10.60
2022-09-26T08:18:51.442Z,7.70
2022-09-26T08:19:25.793Z,6.35
2022-09-26T08:19:57.891Z,9.32
2022-09-26T08:20:32.249Z,5.72
2022-09-26T08:21:06.231Z,5.35
2022-09-26T08:21:38.240Z,4.72
2022-09-26T08:22:11.861Z,5.57
2022-09-26T08:22:43.942Z,3.35
2022-09-26T08:23:18.623Z,3.67
2022-09-26T08:23:59.998Z,5.93
2022-09-26T08:24:50.707Z,4.25
2022-09-26T08:25:27.773Z,4.57
2022-09-26T08:26:24.127Z,4.88
2022-09-26T08:27:13.367Z,5.18
2022-09-26T08:27:48.527Z,2.70
2022-09-26T08:28:20.977Z,3.78
2022-09-26T08:28:53.997Z,4.50
2022-09-26T08:29:29.544Z,4.15
2022-09-26T08:30:02.897Z,6.40
2022-09-26T08:30:35.631Z,5.85
2022-09-26T08:31:10.482Z,7.97
2022-09-26T08:31:42.709Z,5.97
2022-09-26T08:32:16.461Z,5.57
2022-09-26T08:33:02.150Z,3.95
2022-09-26T08:33:40.227Z,4.25
2022-09-26T08:34:12.389Z,3.35